createdAt,value
2022-11-15T00:01:25.963Z,8.80
2022-11-15T00:03:54.245Z,8.80
2022-11-15T00:06:22.542Z,8.80
2022-11-15T00:08:50.851Z,8.90
2022-11-15T00:11:19.147Z,9.00
2022-11-15T00:13:49.039Z,9.00
2022-11-15T00:16:17.685Z,9.20
2022-11-15T00:18:50.413Z,9.20
2022-11-15T00:21:19.895Z,9.30
2022-11-15T00:23:48.227Z,9.40
2022-11-15T00:26:17.757Z,9.50
2022-11-15T00:28:46.196Z,9.50
2022-11-15T00:31:16.536Z,9.50
2022-11-15T00:33:46.646Z,9.50
2022-11-15T00:36:14.981Z,9.60
2022-11-15T00:38:43.218Z,9.60
2022-11-15T00:41:11.587Z,9.60
2022-11-15T00:43:40.846Z,9.60
2022-11-15T00:46:10.737Z,9.60
2022-11-15T00:48:40.500Z,9.50
2022-11-15T00:51:08.789Z,9.50
2022-11-15T00:53:37.302Z,9.50
2022-11-15T00:56:06.050Z,9.50
2022-11-15T00:58:34.404Z,9.50
2022-11-15T01:01:09.969Z,9.50
2022-11-15T01:03:41.337Z,9.50
2022-11-15T01:06:10.848Z,9.50
2022-11-15T01:08:40.314Z,9.50
2022-11-15T01:11:12.882Z,9.50
2022-11-15T01:13:42.060Z,9.60
2022-11-15T01:16:15.155Z,9.60
2022-11-15T01:18:44.914Z,9.60
2022-11-15T01:21:16.570Z,9.60
2022-11-15T01:23:47.226Z,9.70
2022-11-15T01:26:17.567Z,9.70
2022-11-15T01:28:45.813Z,9.70
2022-11-15T01:31:18.492Z,9.80
2022-11-15T01:33:49.470Z,9.80
2022-11-15T01:36:22.726Z,9.80
2022-11-15T01:38:56.410Z,9.80
2022-11-15T01:41:28.812Z,9.90
2022-11-15T01:43:59.797Z,9.90
2022-11-15T01:46:32.918Z,9.90
2022-11-15T01:49:11.138Z,9.90
2022-11-15T01:51:39.966Z,9.90
2022-11-15T01:54:12.929Z,9.90
2022-11-15T01:56:49.413Z,10.00
2022-11-15T01:59:17.942Z,10.00
2022-11-15T02:01:46.482Z,10.00
2022-11-15T02:04:22.701Z,10.00
2022-11-15T02:06:51.774Z,10.10
2022-11-15T02:09:21.026Z,10.10
2022-11-15T02:11:51.149Z,10.10
2022-11-15T02:14:22.323Z,10.10
2022-11-15T02:16:57.797Z,10.10
2022-11-15T02:20:48.163Z,10.10
2022-11-15T02:23:56.177Z,10.20
2022-11-15T02:27:10.943Z,10.20
2022-11-15T02:30:16.002Z,10.20
2022-11-15T02:32:50.620Z,10.30
2022-11-15T02:35:32.435Z,10.30
2022-11-15T02:38:08.978Z,10.30
2022-11-15T02:40:47.745Z,10.30
2022-11-15T02:43:50.599Z,10.40
2022-11-15T02:46:46.292Z,10.40
2022-11-15T02:49:17.218Z,10.50
2022-11-15T02:51:49.674Z,10.50
2022-11-15T02:54:24.887Z,10.60
2022-11-15T02:56:58.634Z,10.60
2022-11-15T03:00:01.120Z,10.60
2022-11-15T03:02:49.917Z,10.60
2022-11-15T03:05:27.429Z,10.60
2022-11-15T03:08:03.557Z,10.70
2022-11-15T03:10:45.815Z,10.70
2022-11-15T03:13:24.243Z,10.70
2022-11-15T03:16:02.032Z,10.80
2022-11-15T03:18:36.453Z,10.80
2022-11-15T03:21:08.949Z,10.80
2022-11-15T03:23:39.719Z,10.80
2022-11-15T03:26:12.014Z,10.90
2022-11-15T03:28:45.566Z,10.90
2022-11-15T03:31:33.840Z,10.90
2022-11-15T03:34:08.027Z,10.90
2022-11-15T03:36:37.016Z,10.90
2022-11-15T03:39:09.924Z,10.90
2022-11-15T03:41:46.872Z,10.90
2022-11-15T03:44:24.027Z,10.90
2022-11-15T03:47:00.982Z,11.00
2022-11-15T03:49:36.103Z,10.90
2022-11-15T03:52:06.382Z,10.90
2022-11-15T03:54:34.730Z,10.90
2022-11-15T03:57:02.993Z,11.00
2022-11-15T03:59:31.219Z,10.90
2022-11-15T04:01:59.507Z,10.90
2022-11-15T04:04:27.950Z,10.90
2022-11-15T04:06:57.612Z,11.00
2022-11-15T04:09:25.904Z,11.00
2022-11-15T04:11:54.191Z,10.90
2022-11-15T04:14:22.552Z,10.90
2022-11-15T04:16:50.819Z,11.00
2022-11-15T04:19:36.486Z,11.00
2022-11-15T04:22:23.557Z,11.00
2022-11-15T04:24:51.758Z,11.00
2022-11-15T04:27:20.022Z,11.00
2022-11-15T04:29:49.029Z,11.00
2022-11-15T04:32:17.258Z,11.00
2022-11-15T04:34:45.499Z,11.00
2022-11-15T04:37:14.169Z,11.00
2022-11-15T04:39:42.903Z,11.00
2022-11-15T04:42:11.851Z,11.00
2022-11-15T04:44:40.419Z,11.00
2022-11-15T04:47:08.703Z,11.00
2022-11-15T04:49:36.951Z,11.00
2022-11-15T04:52:05.663Z,11.00
2022-11-15T04:54:35.346Z,11.10
2022-11-15T04:57:03.560Z,11.10
2022-11-15T04:59:31.756Z,11.10
2022-11-15T05:02:00.068Z,11.10
2022-11-15T05:04:27.707Z,11.10
2022-11-15T05:06:56.014Z,11.10
2022-11-15T05:09:24.639Z,11.10
2022-11-15T05:11:54.391Z,11.20
2022-11-15T05:14:22.682Z,11.20
2022-11-15T05:16:51.918Z,11.20
2022-11-15T05:19:20.144Z,11.20
2022-11-15T05:21:49.176Z,11.20
2022-11-15T05:24:17.477Z,11.20
2022-11-15T05:26:45.725Z,11.20
2022-11-15T05:29:15.374Z,11.20
2022-11-15T05:31:44.322Z,11.20
2022-11-15T05:34:12.719Z,11.20
2022-11-15T05:36:45.751Z,11.20
2022-11-15T05:39:14.313Z,11.20
2022-11-15T05:41:46.626Z,11.20
2022-11-15T05:44:20.247Z,11.20
2022-11-15T05:46:50.643Z,11.20
2022-11-15T05:49:22.551Z,11.20
2022-11-15T05:51:52.152Z,11.20
2022-11-15T05:54:22.444Z,11.20
2022-11-15T05:56:51.783Z,11.20
2022-11-15T05:59:22.128Z,11.20
2022-11-15T06:01:50.773Z,11.20
2022-11-15T06:04:19.091Z,11.20
2022-11-15T06:06:47.386Z,11.20
2022-11-15T06:09:15.641Z,11.20
2022-11-15T06:11:44.071Z,11.20
2022-11-15T06:14:12.341Z,11.30
2022-11-15T06:16:41.940Z,11.30
2022-11-15T06:19:10.319Z,11.30
2022-11-15T06:21:38.742Z,11.30
2022-11-15T06:24:08.650Z,11.30
2022-11-15T06:26:36.976Z,11.30
2022-11-15T06:29:05.966Z,11.30
2022-11-15T06:31:35.520Z,11.30
2022-11-15T06:34:05.133Z,11.30
2022-11-15T06:36:33.395Z,11.30
2022-11-15T06:39:01.653Z,11.30
2022-11-15T06:41:29.931Z,11.40
2022-11-15T06:43:59.594Z,11.40
2022-11-15T06:46:28.149Z,11.40
2022-11-15T06:48:56.924Z,11.40
2022-11-15T06:51:26.587Z,11.40
2022-11-15T06:53:54.905Z,11.40
2022-11-15T06:56:23.352Z,11.30
2022-11-15T06:58:51.598Z,11.40
2022-11-15T07:01:19.933Z,11.40
2022-11-15T07:03:48.203Z,11.30
2022-11-15T07:06:16.520Z,11.30
2022-11-15T07:08:46.721Z,11.30
2022-11-15T07:11:15.679Z,11.30
2022-11-15T07:13:43.882Z,11.30
2022-11-15T07:16:13.185Z,11.30
2022-11-15T07:18:42.573Z,11.30
2022-11-15T07:21:13.637Z,11.20
2022-11-15T07:23:42.283Z,11.20
2022-11-15T07:26:12.000Z,11.20
2022-11-15T07:28:40.544Z,11.20
2022-11-15T07:31:10.547Z,11.20
2022-11-15T07:33:39.192Z,11.10
2022-11-15T07:36:09.815Z,11.10
2022-11-15T07:38:42.838Z,11.10
2022-11-15T07:41:13.066Z,11.00
2022-11-15T07:43:41.374Z,11.00
2022-11-15T07:46:11.162Z,11.00
2022-11-15T07:48:44.636Z,11.00
2022-11-15T07:51:15.536Z,10.90
2022-11-15T07:53:44.228Z,11.00
2022-11-15T07:56:14.334Z,11.00
2022-11-15T07:58:43.125Z,10.90
2022-11-15T08:01:12.640Z,11.00
2022-11-15T08:03:41.206Z,11.00
2022-11-15T08:06:09.623Z,10.90
2022-11-15T08:08:37.972Z,11.00
2022-11-15T08:11:06.637Z,11.00
2022-11-15T08:13:36.610Z,11.00
2022-11-15T08:16:06.660Z,11.00
2022-11-15T08:18:35.139Z,11.00
2022-11-15T08:21:04.110Z,11.00
2022-11-15T08:23:33.400Z,11.00
2022-11-15T08:26:03.785Z,11.00
2022-11-15T08:28:33.031Z,11.00
2022-11-15T08:31:03.470Z,11.00
2022-11-15T08:33:32.962Z,11.10
2022-11-15T08:36:02.922Z,11.00
2022-11-15T08:38:31.764Z,11.10
2022-11-15T08:41:05.427Z,11.10
2022-11-15T08:43:34.349Z,11.10
2022-11-15T08:46:04.292Z,11.20
2022-11-15T08:48:32.846Z,11.20
2022-11-15T08:51:01.328Z,11.20
2022-11-15T08:53:29.640Z,11.20
2022-11-15T08:55:58.005Z,11.20
2022-11-15T08:58:26.408Z,11.30
2022-11-15T09:00:54.662Z,11.30
2022-11-15T09:03:24.257Z,11.40
2022-11-15T09:05:58.048Z,11.50
2022-11-15T09:08:46.506Z,11.70
2022-11-15T09:11:15.633Z,11.70
2022-11-15T09:13:44.078Z,11.90
2022-11-15T09:16:14.217Z,12.00
2022-11-15T09:18:44.137Z,12.00
2022-11-15T09:21:12.708Z,12.00
2022-11-15T09:23:41.337Z,12.00
2022-11-15T09:26:10.041Z,12.10
2022-11-15T09:28:39.333Z,12.10
2022-11-15T09:31:08.529Z,12.10
2022-11-15T09:33:37.065Z,12.20
2022-11-15T09:36:10.038Z,12.10
2022-11-15T09:38:38.704Z,12.20
2022-11-15T09:42:10.008Z,12.20
2022-11-15T09:44:52.828Z,12.20
2022-11-15T09:48:02.528Z,12.30
2022-11-15T09:50:39.168Z,12.30
2022-11-15T09:53:14.388Z,12.30
2022-11-15T09:55:50.280Z,12.40
2022-11-15T09:58:29.341Z,12.50
2022-11-15T10:01:00.471Z,12.80
2022-11-15T10:03:33.721Z,12.90
2022-11-15T10:06:06.379Z,13.00
2022-11-15T10:08:52.739Z,13.10
2022-11-15T10:11:40.942Z,13.30
2022-11-15T10:14:15.120Z,13.30
2022-11-15T10:17:24.613Z,13.30
2022-11-15T10:20:09.853Z,13.30
2022-11-15T10:22:42.535Z,13.30
2022-11-15T10:25:25.204Z,13.40
2022-11-15T10:27:58.677Z,13.50
2022-11-15T10:30:35.596Z,13.50
2022-11-15T10:33:22.142Z,13.60
2022-11-15T10:35:50.548Z,13.80
2022-11-15T10:38:21.691Z,13.90
2022-11-15T10:41:08.969Z,13.90
2022-11-15T10:43:37.278Z,14.00
2022-11-15T10:46:45.474Z,14.00
2022-11-15T10:49:20.035Z,13.90
2022-11-15T10:51:51.410Z,13.90
2022-11-15T10:54:25.915Z,14.00
2022-11-15T10:56:59.717Z,13.90
2022-11-15T10:59:34.883Z,13.90
2022-11-15T11:02:33.691Z,14.00
2022-11-15T11:05:03.243Z,14.00
2022-11-15T11:07:35.561Z,13.90
2022-11-15T11:10:49.799Z,13.60
2022-11-15T11:13:28.428Z,13.50
2022-11-15T11:16:08.192Z,13.40
2022-11-15T11:18:43.921Z,13.40
2022-11-15T11:21:17.321Z,13.50
2022-11-15T11:23:55.672Z,13.50
2022-11-15T11:26:44.676Z,13.60
2022-11-15T11:29:33.040Z,13.70
2022-11-15T11:32:10.893Z,13.80
2022-11-15T11:34:52.859Z,13.80
2022-11-15T11:37:32.157Z,13.70
2022-11-15T11:40:18.623Z,13.70
2022-11-15T11:43:00.215Z,13.70
2022-11-15T11:46:07.548Z,13.80
2022-11-15T11:48:44.981Z,13.90
2022-11-15T11:51:21.215Z,14.00
2022-11-15T11:53:58.741Z,14.00
2022-11-15T11:56:31.347Z,14.10
2022-11-15T11:59:08.627Z,13.90
2022-11-15T12:01:43.982Z,13.80
2022-11-15T12:04:18.698Z,13.90
2022-11-15T12:06:52.879Z,14.00
2022-11-15T12:09:33.581Z,14.00
2022-11-15T12:12:11.500Z,14.00
2022-11-15T12:14:46.713Z,13.90
2022-11-15T12:17:25.041Z,13.80
2022-11-15T12:19:54.901Z,13.90
2022-11-15T12:22:26.619Z,13.90
2022-11-15T12:25:01.574Z,14.00
2022-11-15T12:27:37.473Z,14.00
2022-11-15T12:30:13.542Z,14.00
2022-11-15T12:32:55.657Z,14.00
2022-11-15T12:35:34.775Z,14.00
2022-11-15T12:38:03.346Z,14.00
2022-11-15T12:40:38.774Z,14.00
2022-11-15T12:43:43.922Z,14.00
2022-11-15T12:46:42.237Z,14.00
2022-11-15T12:49:46.490Z,14.00
2022-11-15T12:52:15.055Z,14.00
2022-11-15T12:55:02.944Z,13.90
2022-11-15T12:57:43.821Z,13.90
2022-11-15T13:00:45.938Z,13.80
2022-11-15T13:03:27.061Z,13.70
2022-11-15T13:06:12.363Z,13.70
2022-11-15T13:08:50.700Z,13.70
2022-11-15T13:11:53.566Z,13.70
2022-11-15T13:14:52.114Z,13.70
2022-11-15T13:17:34.342Z,13.80
2022-11-15T13:20:29.424Z,13.80
2022-11-15T13:23:10.453Z,13.80
2022-11-15T13:26:09.138Z,13.80
2022-11-15T13:28:41.690Z,13.80
2022-11-15T13:31:29.946Z,13.80
2022-11-15T13:34:02.476Z,13.80
2022-11-15T13:36:35.138Z,13.80
2022-11-15T13:39:07.998Z,13.70
2022-11-15T13:41:38.361Z,13.70
2022-11-15T13:44:22.129Z,13.70
2022-11-15T13:46:50.384Z,13.70
2022-11-15T13:49:18.610Z,13.70
2022-11-15T13:51:50.298Z,13.60
2022-11-15T13:54:26.159Z,13.60
2022-11-15T13:56:59.163Z,13.60
2022-11-15T13:59:29.699Z,13.60
2022-11-15T14:02:01.974Z,13.60
2022-11-15T14:04:34.761Z,13.60
2022-11-15T14:07:04.942Z,13.70
2022-11-15T14:09:39.829Z,13.60
2022-11-15T14:12:33.030Z,13.60
2022-11-15T14:15:03.491Z,13.60
2022-11-15T14:17:45.646Z,13.60
2022-11-15T14:20:34.157Z,13.60
2022-11-15T14:23:04.639Z,13.50
2022-11-15T14:25:36.134Z,13.50
2022-11-15T14:28:17.989Z,13.50
2022-11-15T14:30:51.122Z,13.50
2022-11-15T14:33:26.075Z,13.50
2022-11-15T14:35:55.478Z,13.50
2022-11-15T14:38:23.707Z,13.50
2022-11-15T14:40:54.973Z,13.40
2022-11-15T14:43:23.604Z,13.50
2022-11-15T14:45:51.882Z,13.40
2022-11-15T14:48:20.323Z,13.40
2022-11-15T14:50:48.589Z,13.50
2022-11-15T14:53:19.810Z,13.50
2022-11-15T14:55:48.067Z,13.50
2022-11-15T14:58:17.674Z,13.40
2022-11-15T15:00:46.012Z,13.50
2022-11-15T15:03:14.268Z,13.50
2022-11-15T15:05:44.626Z,13.50
2022-11-15T15:08:13.570Z,13.50
2022-11-15T15:10:45.829Z,13.50
2022-11-15T15:13:21.213Z,13.50
2022-11-15T15:15:50.871Z,13.50
2022-11-15T15:18:19.925Z,13.50
2022-11-15T15:21:01.080Z,13.50
2022-11-15T15:23:31.814Z,13.50
2022-11-15T15:26:00.364Z,13.50
2022-11-15T15:28:34.220Z,13.50
2022-11-15T15:31:03.340Z,13.50
2022-11-15T15:33:31.637Z,13.50
2022-11-15T15:36:00.195Z,13.50
2022-11-15T15:38:28.572Z,13.50
2022-11-15T15:40:56.928Z,13.50
2022-11-15T15:43:25.230Z,13.50
2022-11-15T15:45:54.988Z,13.50
2022-11-15T15:48:23.377Z,13.50
2022-11-15T15:50:51.763Z,13.50
2022-11-15T15:53:20.115Z,13.50
2022-11-15T15:55:48.518Z,13.50
2022-11-15T15:58:16.769Z,13.40
2022-11-15T16:00:45.000Z,13.40
2022-11-15T16:03:14.571Z,13.40
2022-11-15T16:05:42.936Z,13.40
2022-11-15T16:08:20.460Z,13.40
2022-11-15T16:10:49.078Z,13.40
2022-11-15T16:13:18.456Z,13.40
2022-11-15T16:15:54.728Z,13.40
2022-11-15T16:18:24.406Z,13.40
2022-11-15T16:20:57.508Z,13.50
2022-11-15T16:23:25.838Z,13.50
2022-11-15T16:25:56.765Z,13.40
2022-11-15T16:28:31.367Z,13.40
2022-11-15T16:31:04.829Z,13.40
2022-11-15T16:33:34.952Z,13.40
2022-11-15T16:36:03.701Z,13.30
2022-11-15T16:38:32.783Z,13.30
2022-11-15T16:41:01.383Z,13.30
2022-11-15T16:43:29.663Z,13.30
2022-11-15T16:45:57.938Z,13.30
2022-11-15T16:48:28.255Z,13.30
2022-11-15T16:50:59.399Z,13.30
2022-11-15T16:53:28.857Z,13.30
2022-11-15T16:55:58.055Z,13.30
2022-11-15T16:58:26.606Z,13.20
2022-11-15T17:00:56.659Z,13.20
2022-11-15T17:03:26.754Z,13.20
2022-11-15T17:06:00.731Z,13.20
2022-11-15T17:08:28.997Z,13.20
2022-11-15T17:10:57.246Z,13.20
2022-11-15T17:13:25.583Z,13.20
2022-11-15T17:16:06.701Z,13.10
2022-11-15T17:18:35.645Z,13.10
2022-11-15T17:21:11.910Z,13.00
2022-11-15T17:23:40.460Z,13.00
2022-11-15T17:26:28.812Z,13.00
2022-11-15T17:28:58.530Z,12.90
2022-11-15T17:31:27.090Z,12.90
2022-11-15T17:33:55.354Z,12.90
2022-11-15T17:36:24.966Z,12.80
2022-11-15T17:38:58.054Z,12.80
2022-11-15T17:41:27.890Z,12.70
2022-11-15T17:43:59.119Z,12.70
2022-11-15T17:46:28.791Z,12.70
2022-11-15T17:48:58.720Z,12.70
2022-11-15T17:51:28.357Z,12.60
2022-11-15T17:53:57.510Z,12.50
2022-11-15T17:56:28.283Z,12.50
2022-11-15T17:58:59.632Z,12.40
2022-11-15T18:01:30.238Z,12.30
2022-11-15T18:04:01.944Z,12.30
2022-11-15T18:06:34.296Z,12.20
2022-11-15T18:09:03.627Z,12.20
2022-11-15T18:11:34.305Z,12.20
2022-11-15T18:14:04.935Z,12.10
2022-11-15T18:16:35.997Z,12.10
2022-11-15T18:19:08.809Z,12.00
2022-11-15T18:21:56.305Z,12.00
2022-11-15T18:24:25.178Z,12.00
2022-11-15T18:26:53.431Z,12.00
2022-11-15T18:29:24.474Z,11.90
2022-11-15T18:31:55.604Z,12.00
2022-11-15T18:34:25.553Z,11.90
2022-11-15T18:36:55.486Z,11.90
2022-11-15T18:39:23.742Z,11.90
2022-11-15T18:41:52.366Z,11.90
2022-11-15T18:44:20.848Z,11.90
2022-11-15T18:46:49.191Z,11.80
2022-11-15T18:49:19.744Z,11.80
2022-11-15T18:51:48.881Z,11.80
2022-11-15T18:54:19.140Z,11.80
2022-11-15T18:56:47.631Z,11.80
2022-11-15T18:59:16.970Z,11.80
2022-11-15T19:01:48.398Z,11.80
2022-11-15T19:04:19.702Z,11.80
2022-11-15T19:06:50.468Z,11.80
2022-11-15T19:09:21.117Z,11.80
2022-11-15T19:11:52.183Z,11.80
2022-11-15T19:14:24.193Z,11.80
2022-11-15T19:16:53.194Z,11.80
2022-11-15T19:19:23.430Z,11.80
2022-11-15T19:21:52.066Z,11.80
2022-11-15T19:24:22.081Z,11.80
2022-11-15T19:26:50.436Z,11.70
2022-11-15T19:29:19.108Z,11.70
2022-11-15T19:31:48.751Z,11.70
2022-11-15T19:34:17.954Z,11.70
2022-11-15T19:36:46.706Z,11.70
2022-11-15T19:39:18.506Z,11.70
2022-11-15T19:41:48.263Z,11.70
2022-11-15T19:44:16.921Z,11.70
2022-11-15T19:46:45.366Z,11.60
2022-11-15T19:49:13.971Z,11.60
2022-11-15T19:51:45.145Z,11.60
2022-11-15T19:54:13.723Z,11.60
2022-11-15T19:56:42.116Z,11.60
2022-11-15T19:59:13.598Z,11.60
2022-11-15T20:01:42.661Z,11.50
2022-11-15T20:04:11.392Z,11.50
2022-11-15T20:06:43.748Z,11.60
2022-11-15T20:09:15.267Z,11.60
2022-11-15T20:11:43.805Z,11.50
2022-11-15T20:14:13.947Z,11.50
2022-11-15T20:16:42.651Z,11.60
2022-11-15T20:19:12.514Z,11.60
2022-11-15T20:21:41.223Z,11.50
2022-11-15T20:24:10.107Z,11.60
2022-11-15T20:26:38.927Z,11.50
2022-11-15T20:29:08.488Z,11.50
2022-11-15T20:31:38.325Z,11.60
2022-11-15T20:34:06.627Z,11.60
2022-11-15T20:36:34.981Z,11.60
2022-11-15T20:39:03.404Z,11.60
2022-11-15T20:41:31.746Z,11.60
2022-11-15T20:44:02.956Z,11.60
2022-11-15T20:46:31.293Z,11.60
2022-11-15T20:49:01.146Z,11.60
2022-11-15T20:51:29.523Z,11.60
2022-11-15T20:53:57.892Z,11.60
2022-11-15T20:56:26.297Z,11.60
2022-11-15T20:58:54.898Z,11.60
2022-11-15T21:01:24.799Z,11.70
2022-11-15T21:03:55.417Z,11.60
2022-11-15T21:06:26.832Z,11.60
2022-11-15T21:09:16.342Z,11.60
2022-11-15T21:12:02.350Z,11.70
2022-11-15T21:14:31.149Z,11.60
2022-11-15T21:16:59.525Z,11.60
2022-11-15T21:19:32.637Z,11.60
2022-11-15T21:22:06.956Z,11.60
2022-11-15T21:24:35.236Z,11.70
2022-11-15T21:27:03.609Z,11.60
2022-11-15T21:29:37.568Z,11.60
2022-11-15T21:32:08.277Z,11.60
2022-11-15T21:34:37.188Z,11.60
2022-11-15T21:37:06.917Z,11.60
2022-11-15T21:39:35.197Z,11.60
2022-11-15T21:42:03.538Z,11.70
2022-11-15T21:44:32.047Z,11.70
2022-11-15T21:47:00.338Z,11.70
2022-11-15T21:49:28.584Z,11.60
2022-11-15T21:51:56.879Z,11.60
2022-11-15T21:54:26.518Z,11.60
2022-11-15T21:56:54.845Z,11.60
2022-11-15T21:59:23.199Z,11.60
2022-11-15T22:02:09.178Z,11.60
2022-11-15T22:04:37.477Z,11.60
2022-11-15T22:07:05.874Z,11.60
2022-11-15T22:09:35.577Z,11.60
2022-11-15T22:12:04.029Z,11.60
2022-11-15T22:14:32.236Z,11.60
2022-11-15T22:17:00.701Z,11.60
2022-11-15T22:19:29.010Z,11.60
2022-11-15T22:21:57.306Z,11.60
2022-11-15T22:24:25.799Z,11.60
2022-11-15T22:26:55.425Z,11.60
2022-11-15T22:29:23.669Z,11.60
2022-11-15T22:31:52.029Z,11.60
2022-11-15T22:34:20.302Z,11.60
2022-11-15T22:37:13.545Z,11.70
2022-11-15T22:39:36.824Z,11.70
2022-11-15T22:42:06.582Z,11.60
2022-11-15T22:44:34.876Z,11.70
2022-11-15T22:47:03.175Z,11.70
2022-11-15T22:49:31.457Z,11.70
2022-11-15T22:51:59.738Z,11.60
2022-11-15T22:54:28.884Z,11.60
2022-11-15T22:56:57.081Z,11.70
2022-11-15T22:59:27.343Z,11.70
2022-11-15T23:01:55.598Z,11.60
2022-11-15T23:04:24.037Z,11.60
2022-11-15T23:06:52.349Z,11.70
2022-11-15T23:09:20.654Z,11.60
2022-11-15T23:12:05.980Z,11.60
2022-11-15T23:14:35.706Z,11.60
2022-11-15T23:17:04.120Z,11.60
2022-11-15T23:19:32.473Z,11.60
2022-11-15T23:22:18.064Z,11.60
2022-11-15T23:24:46.427Z,11.60
2022-11-15T23:27:15.616Z,11.60
2022-11-15T23:30:02.836Z,11.60
2022-11-15T23:32:47.932Z,11.60
2022-11-15T23:35:16.660Z,11.60
2022-11-15T23:37:44.985Z,11.50
2022-11-15T23:40:14.294Z,11.50
2022-11-15T23:42:42.586Z,11.50
2022-11-15T23:45:12.672Z,11.50
2022-11-15T23:47:40.965Z,11.50
2022-11-15T23:50:10.131Z,11.50
2022-11-15T23:52:38.443Z,11.50
2022-11-15T23:55:07.923Z,11.50
2022-11-15T23:57:36.211Z,11.50
